Ourinhos, Brazil
Current Conditions -  °F | °C
As of 10:00 AM on Sunday 21 Dec 2014 (Local Time) from SBBU Reporting Station
Scattered Clouds Scattered Clouds  
Wind Chill: 81°   Ceiling: Unl
Heat Index: 86°   Visibility: 6mi
Dew Point: 75°   Wind: 14mph
Humidity: 84%   Direction: 350°N
Pressure: 29.94"   Gusts: NA
Location:  22.97°S, 49.87°W
Report Text: SBBU 211200Z 35012KT 9999 SCT018 27/24 Q1014
Loading
Personal Weather Stations






























Interactive Weather Map New forecast layout! Learn more

10-Day Weather Forecast

Advertisements
Track Severe Weather on mobile